Time;durP1;ratioP1;P1;durP2;ratioP2;P2;SDS_P1;SDS_P2;PMS_P1;PMS_P2;Temp;Humidity;BMP_temperature;BMP_pressure;BME280_temperature;BME280_humidity;BME280_pressure;Samples;Min_cycle;Max_cycle;Signal;HPM_P1;HPM_P2
2023/10/30 00:00:31;;;;;;;2.35;1.00;;;;;;;;;;10183381;29;20143;-84
2023/10/30 00:05:36;;;;;;;2.47;0.55;;;;;;;;;;10200171;29;20051;-85
2023/10/30 00:10:39;;;;;;;1.92;0.70;;;;;;;;;;10184842;29;20087;-85
2023/10/30 00:15:42;;;;;;;2.70;0.80;;;;;;;;;;10181981;29;20067;-84
2023/10/30 00:20:47;;;;;;;4.72;0.80;;;;;;;;;;10186944;29;20431;-85
2023/10/30 00:25:51;;;;;;;2.13;0.68;;;;;;;;;;10204671;28;20691;-86
2023/10/30 00:30:55;;;;;;;2.78;0.70;;;;;;;;;;10190703;29;20666;-85
2023/10/30 00:35:59;;;;;;;1.73;0.82;;;;;;;;;;10181888;29;20048;-85
2023/10/30 00:41:03;;;;;;;1.45;0.60;;;;;;;;;;10187877;29;20071;-85
2023/10/30 00:46:06;;;;;;;1.83;0.70;;;;;;;;;;10186495;29;20460;-85
2023/10/30 00:51:11;;;;;;;3.25;0.70;;;;;;;;;;10186419;29;20040;-85
2023/10/30 00:56:14;;;;;;;1.85;0.60;;;;;;;;;;10180174;29;20074;-85
2023/10/30 01:01:18;;;;;;;1.60;0.80;;;;;;;;;;10184173;29;20131;-85
2023/10/30 01:06:22;;;;;;;0.47;0.47;;;;;;;;;;10181820;29;20721;-86
2023/10/30 01:11:26;;;;;;;2.65;0.57;;;;;;;;;;10186432;29;20075;-86
2023/10/30 01:16:29;;;;;;;2.05;1.02;;;;;;;;;;10185516;29;20147;-86
2023/10/30 01:21:35;;;;;;;2.15;0.90;;;;;;;;;;10200879;29;20044;-86
2023/10/30 01:26:39;;;;;;;8.10;0.90;;;;;;;;;;10179098;29;20427;-87
2023/10/30 01:31:42;;;;;;;0.82;0.68;;;;;;;;;;10179891;29;20319;-85
2023/10/30 01:36:47;;;;;;;3.90;0.50;;;;;;;;;;10181666;29;20084;-86
2023/10/30 01:41:51;;;;;;;2.88;0.60;;;;;;;;;;10186067;29;20139;-85
2023/10/30 01:46:54;;;;;;;2.00;0.70;;;;;;;;;;10180867;29;20058;-85
2023/10/30 01:51:59;;;;;;;0.40;0.40;;;;;;;;;;10183380;29;20074;-85
2023/10/30 01:57:02;;;;;;;1.77;0.77;;;;;;;;;;10184763;29;20159;-86
2023/10/30 02:02:06;;;;;;;0.25;0.22;;;;;;;;;;10175353;29;20068;-85
2023/10/30 02:07:11;;;;;;;1.45;0.55;;;;;;;;;;10178738;29;20047;-86
2023/10/30 02:12:15;;;;;;;2.40;0.70;;;;;;;;;;10177732;29;20040;-85
2023/10/30 02:17:18;;;;;;;4.60;0.82;;;;;;;;;;10179336;29;20074;-86
2023/10/30 02:22:23;;;;;;;2.88;0.73;;;;;;;;;;10179567;29;20135;-84
2023/10/30 02:27:27;;;;;;;2.30;0.95;;;;;;;;;;10179263;29;20142;-85
2023/10/30 02:32:31;;;;;;;2.17;0.80;;;;;;;;;;10185363;29;20507;-86
2023/10/30 02:37:34;;;;;;;1.10;0.50;;;;;;;;;;10182589;29;20059;-85
2023/10/30 02:42:39;;;;;;;2.10;0.63;;;;;;;;;;10181922;29;20592;-88
2023/10/30 02:47:43;;;;;;;1.42;0.73;;;;;;;;;;10179169;29;20119;-85
2023/10/30 02:52:46;;;;;;;0.68;0.40;;;;;;;;;;10180465;29;20096;-85
2023/10/30 02:57:51;;;;;;;1.95;0.63;;;;;;;;;;10175818;29;20075;-85
2023/10/30 03:02:54;;;;;;;3.22;1.17;;;;;;;;;;10184503;29;20119;-86
2023/10/30 03:07:57;;;;;;;2.35;0.73;;;;;;;;;;10188713;29;20115;-85
2023/10/30 03:13:02;;;;;;;1.42;0.60;;;;;;;;;;10191112;29;20107;-85
2023/10/30 03:18:05;;;;;;;2.00;0.63;;;;;;;;;;10190990;29;20083;-85
2023/10/30 03:23:09;;;;;;;1.70;0.80;;;;;;;;;;10187399;29;20043;-85
2023/10/30 03:28:14;;;;;;;4.95;0.80;;;;;;;;;;10176527;29;20052;-85
2023/10/30 03:33:20;;;;;;;1.98;0.50;;;;;;;;;;10191013;29;20100;-85
2023/10/30 03:38:24;;;;;;;1.98;0.60;;;;;;;;;;10183792;29;20048;-85
2023/10/30 03:43:28;;;;;;;4.50;0.90;;;;;;;;;;10181575;29;20120;-85
2023/10/30 03:48:32;;;;;;;4.47;0.73;;;;;;;;;;10184132;29;20060;-85
2023/10/30 03:53:36;;;;;;;2.15;0.73;;;;;;;;;;10201389;29;20079;-86
2023/10/30 03:58:41;;;;;;;2.88;0.63;;;;;;;;;;10183864;29;20103;-84
2023/10/30 04:03:44;;;;;;;3.80;0.95;;;;;;;;;;10182947;29;20051;-86
2023/10/30 04:08:48;;;;;;;2.92;0.88;;;;;;;;;;10206111;29;20420;-85
2023/10/30 04:13:52;;;;;;;2.92;0.90;;;;;;;;;;10184803;29;20052;-86
2023/10/30 04:18:57;;;;;;;6.88;1.38;;;;;;;;;;10190077;29;20048;-85
2023/10/30 04:24:00;;;;;;;1.20;0.70;;;;;;;;;;10185642;29;20220;-85
2023/10/30 04:29:05;;;;;;;1.52;0.68;;;;;;;;;;10184651;29;20051;-86
2023/10/30 04:34:08;;;;;;;6.30;1.15;;;;;;;;;;10182146;29;20052;-85
2023/10/30 04:39:13;;;;;;;5.05;1.13;;;;;;;;;;10199749;29;20108;-85
2023/10/30 04:44:18;;;;;;;1.88;0.73;;;;;;;;;;10198076;29;20104;-85
2023/10/30 04:49:21;;;;;;;2.58;0.90;;;;;;;;;;10179263;29;20036;-85
2023/10/30 04:54:25;;;;;;;3.80;0.77;;;;;;;;;;10175160;29;20141;-84
2023/10/30 04:59:29;;;;;;;5.88;0.85;;;;;;;;;;10177711;29;20134;-85
2023/10/30 05:04:33;;;;;;;2.97;0.80;;;;;;;;;;10173233;28;20142;-83
2023/10/30 05:09:37;;;;;;;3.15;1.02;;;;;;;;;;10192532;29;20152;-84
2023/10/30 05:14:41;;;;;;;2.65;0.70;;;;;;;;;;10198051;29;20181;-88
2023/10/30 05:19:45;;;;;;;1.25;0.63;;;;;;;;;;10184644;29;20044;-89
2023/10/30 05:24:49;;;;;;;0.98;0.40;;;;;;;;;;10184859;29;20052;-88
2023/10/30 05:29:54;;;;;;;3.78;1.10;;;;;;;;;;10189514;29;20871;-88
2023/10/30 05:34:58;;;;;;;2.20;0.60;;;;;;;;;;10175159;29;20060;-89
2023/10/30 05:40:02;;;;;;;3.20;1.17;;;;;;;;;;10181549;29;20078;-90
2023/10/30 05:45:08;;;;;;;7.00;0.80;;;;;;;;;;10202717;29;20048;-89
2023/10/30 05:50:17;;;;;;;;;;;;;;;;;;10201282;29;20048;-88
2023/10/30 05:55:21;;;;;;;2.70;0.70;;;;;;;;;;10183430;29;19987;-86
2023/10/30 06:00:29;;;;;;;2.72;0.60;;;;;;;;;;10187748;29;20044;-86
2023/10/30 06:05:33;;;;;;;4.03;1.50;;;;;;;;;;10185838;29;20060;-87
2023/10/30 06:10:42;;;;;;;1.63;0.60;;;;;;;;;;10162985;29;20055;-87
2023/10/30 06:15:47;;;;;;;0.65;0.35;;;;;;;;;;10198811;29;20051;-87
2023/10/30 06:20:52;;;;;;;1.67;0.45;;;;;;;;;;10181650;29;20052;-87
2023/10/30 06:25:55;;;;;;;1.92;0.70;;;;;;;;;;10178143;29;20076;-87
2023/10/30 06:31:05;;;;;;;0.82;0.40;;;;;;;;;;10200334;29;20044;-86
2023/10/30 06:36:09;;;;;;;0.77;0.30;;;;;;;;;;10185912;29;20056;-87
2023/10/30 06:41:13;;;;;;;0.98;0.30;;;;;;;;;;10203811;29;20055;-87
2023/10/30 06:46:21;;;;;;;1.75;0.30;;;;;;;;;;10188528;29;20053;-87
2023/10/30 06:51:25;;;;;;;0.77;0.47;;;;;;;;;;10188475;29;20052;-89
2023/10/30 06:56:31;;;;;;;0.88;0.30;;;;;;;;;;10186529;29;20083;-87
2023/10/30 07:01:45;;;;;;;1.45;0.40;;;;;;;;;;10178542;29;20134;-90
2023/10/30 07:06:50;;;;;;;0.50;0.38;;;;;;;;;;10186289;29;20262;-91
2023/10/30 07:11:57;;;;;;;0.40;0.40;;;;;;;;;;10195421;29;20055;-90
2023/10/30 07:17:02;;;;;;;0.38;0.38;;;;;;;;;;10211675;29;20104;-91
2023/10/30 07:22:06;;;;;;;1.57;0.50;;;;;;;;;;10199842;29;20565;-91
2023/10/30 07:27:15;;;;;;;2.25;0.40;;;;;;;;;;10194518;29;20287;-91
2023/10/30 07:32:22;;;;;;;1.42;0.30;;;;;;;;;;10213855;29;20100;-90
2023/10/30 07:37:30;;;;;;;0.28;0.20;;;;;;;;;;10195973;29;20079;-91
2023/10/30 07:42:33;;;;;;;0.90;0.38;;;;;;;;;;10183986;29;20115;-92
2023/10/30 10:17:45;;;;;;;1.02;0.50;;;;;;;;;;10123951;29;20060;-89
2023/10/30 10:22:49;;;;;;;0.40;0.30;;;;;;;;;;10126489;29;20052;-89
2023/10/30 10:27:54;;;;;;;0.47;0.38;;;;;;;;;;10142234;29;20461;-89
2023/10/30 10:33:00;;;;;;;0.90;0.35;;;;;;;;;;10124190;29;20329;-89
2023/10/30 10:38:13;;;;;;;0.55;0.30;;;;;;;;;;10137284;29;20103;-89
2023/10/30 10:43:18;;;;;;;0.30;0.30;;;;;;;;;;10121334;29;20551;-89
2023/10/30 10:48:27;;;;;;;0.37;0.37;;;;;;;;;;10133862;29;20060;-89
2023/10/30 10:53:32;;;;;;;0.52;0.30;;;;;;;;;;10144098;29;20445;-90
2023/10/30 10:58:44;;;;;;;0.20;0.20;;;;;;;;;;10131375;29;20060;-89
2023/10/30 11:03:49;;;;;;;0.30;0.30;;;;;;;;;;10129020;29;20111;-89
2023/10/30 11:08:57;;;;;;;0.60;0.45;;;;;;;;;;10127670;29;20053;-90
2023/10/30 11:14:15;;;;;;;0.30;0.30;;;;;;;;;;10131765;29;20056;-90
2023/10/30 11:19:21;;;;;;;0.30;0.30;;;;;;;;;;10147737;29;20079;-90
2023/10/30 11:24:39;;;;;;;0.70;0.40;;;;;;;;;;10137815;29;20060;-89
2023/10/30 11:29:58;;;;;;;0.20;0.20;;;;;;;;;;10130327;29;20075;-89
2023/10/30 11:35:07;;;;;;;0.60;0.30;;;;;;;;;;10127892;29;20067;-90
2023/10/30 11:40:16;;;;;;;0.30;0.28;;;;;;;;;;10129353;29;20056;-89
2023/10/30 11:45:26;;;;;;;0.70;0.30;;;;;;;;;;10136359;29;20536;-89
2023/10/30 11:50:34;;;;;;;0.25;0.20;;;;;;;;;;10142666;29;20079;-89
2023/10/30 11:55:39;;;;;;;0.70;0.30;;;;;;;;;;10115381;29;20053;-89
2023/10/30 12:00:45;;;;;;;0.65;0.30;;;;;;;;;;10146476;29;20045;-90
2023/10/30 12:05:53;;;;;;;0.30;0.30;;;;;;;;;;10132178;29;20140;-90
2023/10/30 12:10:57;;;;;;;0.32;0.20;;;;;;;;;;10118337;29;20087;-89
2023/10/30 12:16:01;;;;;;;0.20;0.20;;;;;;;;;;10135613;29;20048;-90
2023/10/30 12:21:08;;;;;;;0.45;0.30;;;;;;;;;;10135973;29;20504;-90
2023/10/30 12:26:12;;;;;;;0.38;0.30;;;;;;;;;;10130241;29;20083;-91
2023/10/30 12:31:19;;;;;;;1.55;0.40;;;;;;;;;;10127584;29;20413;-89
2023/10/30 12:36:33;;;;;;;1.23;0.40;;;;;;;;;;10123793;29;20049;-89
2023/10/30 12:41:37;;;;;;;0.30;0.30;;;;;;;;;;10120092;29;20064;-89
2023/10/30 12:46:41;;;;;;;0.30;0.30;;;;;;;;;;10134260;29;20531;-89
2023/10/30 12:51:46;;;;;;;1.13;0.30;;;;;;;;;;10125601;29;20059;-90
2023/10/30 12:56:50;;;;;;;1.93;0.43;;;;;;;;;;10126445;29;20056;-90
2023/10/30 13:01:54;;;;;;;1.10;0.47;;;;;;;;;;10129905;29;20449;-89
2023/10/30 13:07:02;;;;;;;1.25;0.30;;;;;;;;;;10120357;29;20539;-90
2023/10/30 13:12:07;;;;;;;0.65;0.40;;;;;;;;;;10121387;29;20466;-89
2023/10/30 13:17:10;;;;;;;0.85;0.40;;;;;;;;;;10129504;29;20079;-90
2023/10/30 13:22:16;;;;;;;0.43;0.40;;;;;;;;;;10136677;29;20500;-89
2023/10/30 13:27:19;;;;;;;0.50;0.50;;;;;;;;;;10127091;29;20130;-89
2023/10/30 13:32:22;;;;;;;0.65;0.52;;;;;;;;;;10129167;29;20071;-89
2023/10/30 13:37:27;;;;;;;3.63;0.70;;;;;;;;;;10124867;29;20059;-90
2023/10/30 13:42:31;;;;;;;1.25;0.50;;;;;;;;;;10112951;29;20504;-89
2023/10/30 13:47:34;;;;;;;0.50;0.50;;;;;;;;;;10238236;23;20118;-79
2023/10/30 13:52:39;;;;;;;0.43;0.40;;;;;;;;;;10231979;29;20103;-78
2023/10/30 13:57:43;;;;;;;1.08;0.50;;;;;;;;;;10238415;28;20051;-78
2023/10/30 14:02:46;;;;;;;2.50;0.77;;;;;;;;;;10235060;29;20694;-78
2023/10/30 14:07:51;;;;;;;0.75;0.50;;;;;;;;;;10234086;28;20091;-78
2023/10/30 14:12:55;;;;;;;1.38;0.70;;;;;;;;;;10240568;28;20052;-78
2023/10/30 14:17:58;;;;;;;1.38;0.80;;;;;;;;;;10236858;29;20040;-78
2023/10/30 14:23:03;;;;;;;1.50;0.90;;;;;;;;;;10230097;29;20051;-79
2023/10/30 14:28:06;;;;;;;1.80;1.20;;;;;;;;;;10235996;29;20058;-78
2023/10/30 14:33:11;;;;;;;0.90;0.80;;;;;;;;;;10237973;28;20110;-78
2023/10/30 14:38:15;;;;;;;4.07;1.00;;;;;;;;;;10243629;28;20039;-79
2023/10/30 14:43:19;;;;;;;1.98;0.90;;;;;;;;;;10225227;28;20091;-78
2023/10/30 14:48:22;;;;;;;1.40;1.20;;;;;;;;;;10229617;29;20051;-79
2023/10/30 14:53:27;;;;;;;1.10;0.90;;;;;;;;;;10242815;28;20059;-79
2023/10/30 14:58:30;;;;;;;2.38;1.20;;;;;;;;;;10238929;29;20498;-79
2023/10/30 15:03:34;;;;;;;1.65;1.38;;;;;;;;;;10231708;28;20461;-78
2023/10/30 15:08:39;;;;;;;3.00;1.80;;;;;;;;;;10233148;28;20051;-79
2023/10/30 15:13:42;;;;;;;2.80;1.40;;;;;;;;;;10217618;29;20056;-78
2023/10/30 15:18:46;;;;;;;2.53;1.58;;;;;;;;;;10220204;29;20055;-78
2023/10/30 15:23:51;;;;;;;1.58;1.20;;;;;;;;;;10227761;28;20055;-79
2023/10/30 15:28:54;;;;;;;1.90;1.48;;;;;;;;;;10223122;29;20047;-78
2023/10/30 15:33:59;;;;;;;1.73;1.20;;;;;;;;;;10238278;28;20055;-78
2023/10/30 15:39:05;;;;;;;1.42;1.20;;;;;;;;;;10223433;29;20610;-79
2023/10/30 15:44:08;;;;;;;2.70;1.52;;;;;;;;;;10217688;28;20055;-78
2023/10/30 15:49:12;;;;;;;1.13;1.02;;;;;;;;;;10224272;28;20659;-79
2023/10/30 15:54:16;;;;;;;1.83;1.10;;;;;;;;;;10225089;29;20054;-81
2023/10/30 15:59:20;;;;;;;1.60;0.90;;;;;;;;;;10225352;29;20051;-80
2023/10/30 16:04:23;;;;;;;3.72;1.10;;;;;;;;;;10216496;28;20047;-80
2023/10/30 16:09:47;;;;;;;2.35;0.88;;;;;;;;;;10220640;28;20051;-81
2023/10/30 16:14:50;;;;;;;2.25;1.30;;;;;;;;;;10222848;29;20090;-82
2023/10/30 16:19:55;;;;;;;1.70;1.10;;;;;;;;;;10204152;28;20044;-82
2023/10/30 16:25:03;;;;;;;2.10;1.25;;;;;;;;;;10230792;28;20489;-82
2023/10/30 16:30:08;;;;;;;1.48;1.25;;;;;;;;;;10220160;28;20073;-82
2023/10/30 16:35:12;;;;;;;1.58;1.00;;;;;;;;;;10213695;28;20106;-83
2023/10/30 16:40:19;;;;;;;1.92;0.85;;;;;;;;;;10217572;28;20551;-81
2023/10/30 16:45:23;;;;;;;1.42;1.20;;;;;;;;;;10218348;28;20081;-82
2023/10/30 16:50:26;;;;;;;2.30;1.48;;;;;;;;;;10225822;28;20150;-82
2023/10/30 16:55:32;;;;;;;1.60;1.08;;;;;;;;;;10234024;28;20059;-82
2023/10/30 17:00:36;;;;;;;4.97;1.00;;;;;;;;;;10233384;28;20059;-83
2023/10/30 17:05:39;;;;;;;1.92;0.88;;;;;;;;;;10226331;28;20047;-83
2023/10/30 17:10:44;;;;;;;1.45;0.77;;;;;;;;;;10246827;28;20071;-83
2023/10/30 17:15:48;;;;;;;1.20;0.88;;;;;;;;;;10210990;28;20051;-82
2023/10/30 17:20:51;;;;;;;1.35;0.85;;;;;;;;;;10231432;28;20059;-83
2023/10/30 17:25:56;;;;;;;1.58;0.80;;;;;;;;;;10207979;28;20052;-82
2023/10/30 17:31:00;;;;;;;2.00;1.42;;;;;;;;;;10236868;28;20299;-82
2023/10/30 17:36:04;;;;;;;1.38;1.13;;;;;;;;;;10240619;29;20071;-82
2023/10/30 17:41:09;;;;;;;1.05;0.90;;;;;;;;;;10223515;28;20618;-83
2023/10/30 17:46:13;;;;;;;2.30;1.00;;;;;;;;;;10241918;28;20039;-82
2023/10/30 17:51:16;;;;;;;1.10;0.70;;;;;;;;;;10233387;28;20047;-82
2023/10/30 17:56:21;;;;;;;1.88;1.02;;;;;;;;;;10223274;28;20424;-83
2023/10/30 18:01:35;;;;;;;3.05;1.02;;;;;;;;;;10227460;29;20433;-82
2023/10/30 18:06:41;;;;;;;0.73;0.70;;;;;;;;;;10215897;29;20049;-83
2023/10/30 18:11:47;;;;;;;2.28;0.80;;;;;;;;;;10235360;29;20863;-82
2023/10/30 18:16:51;;;;;;;;;;;;;;;;;;10213504;29;20051;-83
2023/10/30 18:21:54;;;;;;;2.00;1.17;;;;;;;;;;10215788;29;20299;-81
2023/10/30 18:27:00;;;;;;;1.17;0.88;;;;;;;;;;10240789;28;20127;-82
2023/10/30 18:32:03;;;;;;;2.75;1.42;;;;;;;;;;10222290;29;20132;-82
2023/10/30 18:37:07;;;;;;;1.33;0.80;;;;;;;;;;10213125;29;20048;-82
2023/10/30 18:42:13;;;;;;;1.05;0.68;;;;;;;;;;10209990;29;20134;-81
2023/10/30 18:47:16;;;;;;;1.02;0.60;;;;;;;;;;10219717;29;20062;-80
2023/10/30 18:52:20;;;;;;;0.65;0.60;;;;;;;;;;10199463;29;20044;-80
2023/10/30 18:57:24;;;;;;;0.77;0.60;;;;;;;;;;10214088;29;20080;-80
2023/10/30 19:02:28;;;;;;;1.17;0.68;;;;;;;;;;10217221;29;20052;-79
2023/10/30 19:07:32;;;;;;;1.20;0.60;;;;;;;;;;10218623;29;20044;-81
2023/10/30 19:12:36;;;;;;;2.17;1.23;;;;;;;;;;10199506;29;20417;-80
2023/10/30 19:17:40;;;;;;;2.28;1.35;;;;;;;;;;10218196;29;20095;-80
2023/10/30 19:22:43;;;;;;;1.80;1.08;;;;;;;;;;10216359;29;20110;-79
2023/10/30 19:27:48;;;;;;;1.02;0.90;;;;;;;;;;10198720;29;20099;-81
2023/10/30 19:32:51;;;;;;;1.50;0.60;;;;;;;;;;10209810;29;20047;-81
2023/10/30 19:37:54;;;;;;;0.70;0.68;;;;;;;;;;10201529;29;20478;-81
2023/10/30 19:43:14;;;;;;;0.35;0.30;;;;;;;;;;10217905;29;20107;-80
2023/10/30 19:48:19;;;;;;;0.50;0.40;;;;;;;;;;10161880;29;20044;-76
2023/10/30 19:53:22;;;;;;;1.27;0.50;;;;;;;;;;10165828;29;20044;-77
2023/10/30 19:58:27;;;;;;;1.20;0.80;;;;;;;;;;10168252;29;20056;-76
2023/10/30 20:03:31;;;;;;;0.85;0.50;;;;;;;;;;10166412;29;20664;-76
2023/10/30 20:08:35;;;;;;;1.15;0.70;;;;;;;;;;10167450;29;20135;-76
2023/10/30 20:13:40;;;;;;;0.82;0.73;;;;;;;;;;10168804;29;20052;-76
2023/10/30 20:18:44;;;;;;;1.48;0.55;;;;;;;;;;10166849;29;20052;-78
2023/10/30 20:23:48;;;;;;;1.17;0.60;;;;;;;;;;10150270;29;20115;-76
2023/10/30 20:28:53;;;;;;;1.65;0.60;;;;;;;;;;10168454;29;20163;-76
2023/10/30 20:33:56;;;;;;;1.45;0.70;;;;;;;;;;10166803;29;20191;-78
2023/10/30 20:39:01;;;;;;;0.70;0.70;;;;;;;;;;10164642;29;20040;-77
2023/10/30 20:44:09;;;;;;;1.13;0.60;;;;;;;;;;10166516;29;20535;-77
2023/10/30 20:49:12;;;;;;;0.50;0.50;;;;;;;;;;10165373;29;20068;-77
2023/10/30 20:54:16;;;;;;;3.38;0.60;;;;;;;;;;10149428;29;20059;-77
2023/10/30 20:59:21;;;;;;;0.55;0.55;;;;;;;;;;10165715;29;20054;-77
2023/10/30 21:04:25;;;;;;;0.57;0.30;;;;;;;;;;10165637;29;20055;-76
2023/10/30 21:09:28;;;;;;;0.50;0.45;;;;;;;;;;10166589;29;20059;-76
2023/10/30 21:14:35;;;;;;;0.50;0.43;;;;;;;;;;10159886;29;20482;-76
2023/10/30 21:19:39;;;;;;;0.30;0.30;;;;;;;;;;10154578;29;20052;-77
2023/10/30 21:24:43;;;;;;;0.65;0.40;;;;;;;;;;10166881;29;20059;-77
2023/10/30 21:29:47;;;;;;;0.60;0.40;;;;;;;;;;10160890;29;20056;-77
2023/10/30 21:34:51;;;;;;;0.40;0.40;;;;;;;;;;10160179;29;20630;-76
2023/10/30 21:39:54;;;;;;;0.43;0.43;;;;;;;;;;10160503;29;20052;-76
2023/10/30 21:45:00;;;;;;;0.77;0.40;;;;;;;;;;10155892;29;20052;-77
2023/10/30 21:50:04;;;;;;;0.30;0.30;;;;;;;;;;10159920;29;20044;-77
2023/10/30 21:55:08;;;;;;;0.50;0.20;;;;;;;;;;10150980;29;20044;-77
2023/10/30 22:00:14;;;;;;;0.77;0.40;;;;;;;;;;10148804;29;20095;-76
2023/10/30 22:05:17;;;;;;;0.28;0.25;;;;;;;;;;10143219;29;20052;-76
2023/10/30 22:10:21;;;;;;;0.25;0.25;;;;;;;;;;10153789;29;20096;-77
2023/10/30 22:15:26;;;;;;;0.35;0.35;;;;;;;;;;10145747;29;20518;-77
2023/10/30 22:20:30;;;;;;;0.40;0.40;;;;;;;;;;10154938;29;20103;-78
2023/10/30 22:25:33;;;;;;;0.75;0.60;;;;;;;;;;10140098;29;20044;-77
2023/10/30 22:30:38;;;;;;;1.95;0.40;;;;;;;;;;10151582;29;20048;-77
2023/10/30 22:35:41;;;;;;;1.27;0.47;;;;;;;;;;10165199;29;20048;-77
2023/10/30 22:40:45;;;;;;;0.40;0.40;;;;;;;;;;10164467;29;20095;-77
2023/10/30 22:45:50;;;;;;;1.05;0.50;;;;;;;;;;10164425;29;20665;-77
2023/10/30 22:50:53;;;;;;;0.88;0.40;;;;;;;;;;10163928;29;20051;-77
2023/10/30 22:55:57;;;;;;;0.75;0.30;;;;;;;;;;10162837;29;20471;-76
2023/10/30 23:01:02;;;;;;;0.52;0.40;;;;;;;;;;10163497;29;20048;-76
2023/10/30 23:06:05;;;;;;;0.40;0.40;;;;;;;;;;10163290;29;20052;-76
2023/10/30 23:11:09;;;;;;;0.60;0.52;;;;;;;;;;10162834;29;20446;-76
2023/10/30 23:16:13;;;;;;;0.43;0.35;;;;;;;;;;10168914;29;20107;-76
2023/10/30 23:21:17;;;;;;;0.65;0.30;;;;;;;;;;10170690;29;20051;-76
2023/10/30 23:26:20;;;;;;;0.30;0.30;;;;;;;;;;10169726;29;20064;-76
2023/10/30 23:31:25;;;;;;;0.30;0.30;;;;;;;;;;10170044;29;20052;-76
2023/10/30 23:36:28;;;;;;;0.30;0.30;;;;;;;;;;10169992;29;20505;-76
2023/10/30 23:41:31;;;;;;;0.30;0.30;;;;;;;;;;10169178;29;20055;-76
2023/10/30 23:46:36;;;;;;;0.28;0.28;;;;;;;;;;10169163;29;20485;-76
2023/10/30 23:51:41;;;;;;;0.32;0.28;;;;;;;;;;10166296;29;20056;-76
2023/10/30 23:56:46;;;;;;;0.30;0.30;;;;;;;;;;10166347;29;20509;-76
